sensor_id;sensor_type;location;lat;lon;timestamp;pressure;altitude;pressure_sealevel;temperature;humidity
7026;BME280;3554;42.132;24.786;2023-05-27T00:01:37;102333.22;;;17.51;100.00
7026;BME280;3554;42.132;24.786;2023-05-27T00:04:04;102320.81;;;17.53;100.00
7026;BME280;3554;42.132;24.786;2023-05-27T00:06:30;102291.78;;;17.47;100.00
7026;BME280;3554;42.132;24.786;2023-05-27T00:08:59;102258.25;;;17.48;100.00
7026;BME280;3554;42.132;24.786;2023-05-27T00:11:25;102241.53;;;17.43;100.00
7026;BME280;3554;42.132;24.786;2023-05-27T00:13:52;102222.00;;;17.50;100.00
7026;BME280;3554;42.132;24.786;2023-05-27T00:16:19;102176.50;;;17.68;100.00
7026;BME280;3554;42.132;24.786;2023-05-27T00:18:46;102138.41;;;17.72;100.00
7026;BME280;3554;42.132;24.786;2023-05-27T00:21:13;102105.03;;;17.65;100.00
7026;BME280;3554;42.132;24.786;2023-05-27T00:23:44;102053.25;;;17.53;100.00
7026;BME280;3554;42.132;24.786;2023-05-27T00:26:12;102042.53;;;17.58;100.00
7026;BME280;3554;42.132;24.786;2023-05-27T00:28:40;101998.78;;;17.42;100.00
7026;BME280;3554;42.132;24.786;2023-05-27T00:31:06;102021.00;;;17.70;100.00
7026;BME280;3554;42.132;24.786;2023-05-27T00:33:33;101949.09;;;17.53;100.00
7026;BME280;3554;42.132;24.786;2023-05-27T00:36:00;101899.81;;;17.46;100.00
7026;BME280;3554;42.132;24.786;2023-05-27T00:38:27;101917.72;;;17.68;100.00
7026;BME280;3554;42.132;24.786;2023-05-27T00:40:53;101905.72;;;17.57;100.00
7026;BME280;3554;42.132;24.786;2023-05-27T00:43:21;101898.75;;;17.53;100.00
7026;BME280;3554;42.132;24.786;2023-05-27T00:45:48;101882.97;;;17.50;100.00
7026;BME280;3554;42.132;24.786;2023-05-27T00:48:15;101893.50;;;17.51;100.00
7026;BME280;3554;42.132;24.786;2023-05-27T00:50:42;101902.34;;;17.50;100.00
7026;BME280;3554;42.132;24.786;2023-05-27T00:53:09;101898.03;;;17.48;100.00
7026;BME280;3554;42.132;24.786;2023-05-27T00:55:35;101889.28;;;17.43;100.00
7026;BME280;3554;42.132;24.786;2023-05-27T00:58:03;101883.97;;;17.44;100.00
7026;BME280;3554;42.132;24.786;2023-05-27T01:00:33;101866.19;;;17.49;100.00
7026;BME280;3554;42.132;24.786;2023-05-27T01:03:00;101858.09;;;17.54;100.00
7026;BME280;3554;42.132;24.786;2023-05-27T01:05:27;101823.84;;;17.46;100.00
7026;BME280;3554;42.132;24.786;2023-05-27T01:08:11;101800.56;;;17.59;100.00
7026;BME280;3554;42.132;24.786;2023-05-27T01:10:42;101748.31;;;17.64;100.00
7026;BME280;3554;42.132;24.786;2023-05-27T01:13:16;101696.28;;;17.61;100.00
7026;BME280;3554;42.132;24.786;2023-05-27T01:15:47;101682.44;;;17.79;100.00
7026;BME280;3554;42.132;24.786;2023-05-27T01:18:16;101650.09;;;17.70;100.00
7026;BME280;3554;42.132;24.786;2023-05-27T01:20:47;101617.47;;;17.68;100.00
7026;BME280;3554;42.132;24.786;2023-05-27T01:23:16;101574.50;;;17.60;100.00
7026;BME280;3554;42.132;24.786;2023-05-27T01:25:43;101549.66;;;17.88;100.00
7026;BME280;3554;42.132;24.786;2023-05-27T01:28:10;101500.94;;;17.91;100.00
7026;BME280;3554;42.132;24.786;2023-05-27T01:30:37;101458.63;;;17.89;100.00
7026;BME280;3554;42.132;24.786;2023-05-27T01:33:07;101411.72;;;17.91;100.00
7026;BME280;3554;42.132;24.786;2023-05-27T01:35:40;101381.59;;;17.94;100.00
7026;BME280;3554;42.132;24.786;2023-05-27T01:38:12;101354.09;;;17.96;100.00
7026;BME280;3554;42.132;24.786;2023-05-27T01:40:43;101310.34;;;17.86;100.00
7026;BME280;3554;42.132;24.786;2023-05-27T01:43:11;101307.81;;;18.05;100.00
7026;BME280;3554;42.132;24.786;2023-05-27T01:45:38;101289.53;;;17.99;100.00
7026;BME280;3554;42.132;24.786;2023-05-27T01:48:05;101260.50;;;17.96;100.00
7026;BME280;3554;42.132;24.786;2023-05-27T01:50:34;101210.41;;;17.90;100.00
7026;BME280;3554;42.132;24.786;2023-05-27T01:53:03;101230.66;;;17.91;100.00
7026;BME280;3554;42.132;24.786;2023-05-27T01:55:30;101231.94;;;18.02;100.00
7026;BME280;3554;42.132;24.786;2023-05-27T01:57:58;101202.59;;;18.07;100.00
7026;BME280;3554;42.132;24.786;2023-05-27T02:00:25;101188.44;;;18.08;100.00
7026;BME280;3554;42.132;24.786;2023-05-27T02:02:52;101188.59;;;18.03;100.00
7026;BME280;3554;42.132;24.786;2023-05-27T02:05:18;101177.03;;;18.06;100.00
7026;BME280;3554;42.132;24.786;2023-05-27T02:07:45;101152.22;;;18.07;100.00
7026;BME280;3554;42.132;24.786;2023-05-27T02:10:12;101151.31;;;18.08;100.00
7026;BME280;3554;42.132;24.786;2023-05-27T02:12:39;101122.09;;;18.09;100.00
7026;BME280;3554;42.132;24.786;2023-05-27T02:15:08;101102.75;;;18.07;100.00
7026;BME280;3554;42.132;24.786;2023-05-27T02:17:35;101095.53;;;18.11;100.00
7026;BME280;3554;42.132;24.786;2023-05-27T02:20:02;101054.38;;;18.02;100.00
7026;BME280;3554;42.132;24.786;2023-05-27T02:22:29;101061.00;;;18.12;100.00
7026;BME280;3554;42.132;24.786;2023-05-27T02:24:56;101040.50;;;18.16;100.00
7026;BME280;3554;42.132;24.786;2023-05-27T02:27:23;101022.19;;;18.11;100.00
7026;BME280;3554;42.132;24.786;2023-05-27T02:29:49;100998.81;;;18.01;100.00
7026;BME280;3554;42.132;24.786;2023-05-27T02:32:17;100998.31;;;18.11;100.00
7026;BME280;3554;42.132;24.786;2023-05-27T02:34:44;100974.59;;;18.08;100.00
7026;BME280;3554;42.132;24.786;2023-05-27T02:37:11;100969.59;;;18.02;100.00
7026;BME280;3554;42.132;24.786;2023-05-27T02:39:38;100951.53;;;17.92;100.00
7026;BME280;3554;42.132;24.786;2023-05-27T02:42:06;100953.75;;;18.01;100.00
7026;BME280;3554;42.132;24.786;2023-05-27T02:44:32;100939.38;;;18.06;100.00
7026;BME280;3554;42.132;24.786;2023-05-27T02:46:59;100934.06;;;18.06;100.00
7026;BME280;3554;42.132;24.786;2023-05-27T02:49:27;100913.13;;;18.00;100.00
7026;BME280;3554;42.132;24.786;2023-05-27T02:51:54;100903.09;;;18.07;100.00
7026;BME280;3554;42.132;24.786;2023-05-27T02:54:21;100893.59;;;18.03;100.00
7026;BME280;3554;42.132;24.786;2023-05-27T02:56:47;100887.06;;;18.10;100.00
7026;BME280;3554;42.132;24.786;2023-05-27T02:59:14;100854.47;;;17.89;100.00
7026;BME280;3554;42.132;24.786;2023-05-27T03:01:41;100871.59;;;18.01;100.00
7026;BME280;3554;42.132;24.786;2023-05-27T03:04:08;100862.72;;;18.02;100.00
7026;BME280;3554;42.132;24.786;2023-05-27T03:06:37;100859.16;;;18.03;100.00
7026;BME280;3554;42.132;24.786;2023-05-27T03:09:03;100850.09;;;18.07;100.00
7026;BME280;3554;42.132;24.786;2023-05-27T03:11:32;100831.41;;;18.10;100.00
7026;BME280;3554;42.132;24.786;2023-05-27T03:13:59;100814.72;;;18.08;100.00
7026;BME280;3554;42.132;24.786;2023-05-27T03:16:26;100794.31;;;18.10;100.00
7026;BME280;3554;42.132;24.786;2023-05-27T03:18:52;100763.75;;;18.20;100.00
7026;BME280;3554;42.132;24.786;2023-05-27T03:21:19;100738.66;;;18.10;100.00
7026;BME280;3554;42.132;24.786;2023-05-27T03:23:47;100718.06;;;18.15;100.00
7026;BME280;3554;42.132;24.786;2023-05-27T03:26:14;100690.78;;;18.30;100.00
7026;BME280;3554;42.132;24.786;2023-05-27T03:28:41;100666.13;;;18.28;100.00
7026;BME280;3554;42.132;24.786;2023-05-27T03:31:08;100629.09;;;18.27;100.00
7026;BME280;3554;42.132;24.786;2023-05-27T03:33:38;100627.16;;;18.30;100.00
7026;BME280;3554;42.132;24.786;2023-05-27T03:36:05;100595.72;;;18.40;100.00
7026;BME280;3554;42.132;24.786;2023-05-27T03:38:32;100563.53;;;18.47;100.00
7026;BME280;3554;42.132;24.786;2023-05-27T03:41:00;100503.41;;;18.31;100.00
7026;BME280;3554;42.132;24.786;2023-05-27T03:43:27;100499.03;;;18.47;100.00
7026;BME280;3554;42.132;24.786;2023-05-27T03:45:53;100469.00;;;18.46;100.00
7026;BME280;3554;42.132;24.786;2023-05-27T03:48:20;100448.22;;;18.54;100.00
7026;BME280;3554;42.132;24.786;2023-05-27T03:50:47;100425.38;;;18.52;100.00
7026;BME280;3554;42.132;24.786;2023-05-27T03:53:32;100393.47;;;18.53;100.00
7026;BME280;3554;42.132;24.786;2023-05-27T03:56:00;100372.78;;;18.60;100.00
7026;BME280;3554;42.132;24.786;2023-05-27T03:58:27;100351.09;;;18.67;100.00
7026;BME280;3554;42.132;24.786;2023-05-27T04:00:54;100340.66;;;18.64;100.00
7026;BME280;3554;42.132;24.786;2023-05-27T04:03:21;100326.00;;;18.73;100.00
7026;BME280;3554;42.132;24.786;2023-05-27T04:05:48;100305.75;;;18.72;100.00
7026;BME280;3554;42.132;24.786;2023-05-27T04:08:14;100295.13;;;18.72;100.00
7026;BME280;3554;42.132;24.786;2023-05-27T04:10:41;100279.78;;;18.77;100.00
7026;BME280;3554;42.132;24.786;2023-05-27T04:13:10;100259.03;;;18.83;100.00
7026;BME280;3554;42.132;24.786;2023-05-27T04:15:36;100245.88;;;18.82;100.00
7026;BME280;3554;42.132;24.786;2023-05-27T04:18:03;100237.44;;;18.75;100.00
7026;BME280;3554;42.132;24.786;2023-05-27T04:20:36;100224.56;;;18.83;100.00
7026;BME280;3554;42.132;24.786;2023-05-27T04:23:05;100214.59;;;18.87;100.00
7026;BME280;3554;42.132;24.786;2023-05-27T04:25:32;100185.53;;;18.99;100.00
7026;BME280;3554;42.132;24.786;2023-05-27T04:27:59;100148.75;;;19.07;100.00
7026;BME280;3554;42.132;24.786;2023-05-27T04:30:30;100121.28;;;18.94;100.00
7026;BME280;3554;42.132;24.786;2023-05-27T04:32:58;100104.03;;;19.01;100.00
7026;BME280;3554;42.132;24.786;2023-05-27T04:35:25;100092.81;;;19.10;100.00
7026;BME280;3554;42.132;24.786;2023-05-27T04:37:52;100076.69;;;19.13;100.00
7026;BME280;3554;42.132;24.786;2023-05-27T04:40:19;100069.97;;;19.22;100.00
7026;BME280;3554;42.132;24.786;2023-05-27T04:42:47;100051.66;;;19.32;100.00
7026;BME280;3554;42.132;24.786;2023-05-27T04:45:14;100025.00;;;19.33;100.00
7026;BME280;3554;42.132;24.786;2023-05-27T04:47:42;99999.94;;;19.37;100.00
7026;BME280;3554;42.132;24.786;2023-05-27T04:50:10;99995.94;;;19.44;100.00
7026;BME280;3554;42.132;24.786;2023-05-27T04:52:37;99962.00;;;19.87;100.00
7026;BME280;3554;42.132;24.786;2023-05-27T04:55:07;99915.94;;;20.24;100.00
7026;BME280;3554;42.132;24.786;2023-05-27T04:57:34;99841.13;;;20.88;100.00
7026;BME280;3554;42.132;24.786;2023-05-27T05:00:02;99767.28;;;20.68;100.00
7026;BME280;3554;42.132;24.786;2023-05-27T05:02:57;99781.34;;;20.81;100.00
7026;BME280;3554;42.132;24.786;2023-05-27T05:05:26;99732.06;;;20.99;100.00
7026;BME280;3554;42.132;24.786;2023-05-27T05:07:53;99682.66;;;21.51;100.00
7026;BME280;3554;42.132;24.786;2023-05-27T05:10:20;99621.47;;;21.82;100.00
7026;BME280;3554;42.132;24.786;2023-05-27T05:12:47;99571.81;;;22.22;100.00
7026;BME280;3554;42.132;24.786;2023-05-27T05:15:14;99541.63;;;21.81;100.00
7026;BME280;3554;42.132;24.786;2023-05-27T05:17:40;99538.16;;;21.69;100.00
7026;BME280;3554;42.132;24.786;2023-05-27T05:20:10;99548.72;;;21.60;100.00
7026;BME280;3554;42.132;24.786;2023-05-27T05:22:37;99527.97;;;21.43;100.00
7026;BME280;3554;42.132;24.786;2023-05-27T05:25:05;99528.25;;;21.92;100.00
7026;BME280;3554;42.132;24.786;2023-05-27T05:27:32;99529.69;;;21.96;100.00
7026;BME280;3554;42.132;24.786;2023-05-27T05:30:17;99530.53;;;21.65;100.00
7026;BME280;3554;42.132;24.786;2023-05-27T05:32:44;99540.22;;;21.34;100.00
7026;BME280;3554;42.132;24.786;2023-05-27T05:35:12;99544.13;;;21.51;100.00
7026;BME280;3554;42.132;24.786;2023-05-27T05:37:39;99518.34;;;21.51;100.00
7026;BME280;3554;42.132;24.786;2023-05-27T05:40:06;99499.78;;;21.29;100.00
7026;BME280;3554;42.132;24.786;2023-05-27T05:42:33;99515.97;;;21.48;100.00
7026;BME280;3554;42.132;24.786;2023-05-27T05:45:00;99485.56;;;21.82;100.00
7026;BME280;3554;42.132;24.786;2023-05-27T05:47:27;99461.69;;;22.11;100.00
7026;BME280;3554;42.132;24.786;2023-05-27T05:49:53;99443.63;;;22.14;100.00
7026;BME280;3554;42.132;24.786;2023-05-27T05:52:21;99428.91;;;21.69;100.00
7026;BME280;3554;42.132;24.786;2023-05-27T05:54:48;99457.94;;;21.72;100.00
7026;BME280;3554;42.132;24.786;2023-05-27T05:57:15;99430.03;;;21.56;100.00
7026;BME280;3554;42.132;24.786;2023-05-27T05:59:42;99451.69;;;21.62;100.00
7026;BME280;3554;42.132;24.786;2023-05-27T06:02:08;99468.00;;;21.48;100.00
7026;BME280;3554;42.132;24.786;2023-05-27T06:04:35;99469.41;;;21.32;100.00
7026;BME280;3554;42.132;24.786;2023-05-27T06:07:02;99477.00;;;21.36;100.00
7026;BME280;3554;42.132;24.786;2023-05-27T06:09:30;99467.19;;;21.37;100.00
7026;BME280;3554;42.132;24.786;2023-05-27T06:11:57;99458.44;;;21.14;100.00
7026;BME280;3554;42.132;24.786;2023-05-27T06:14:23;99472.25;;;20.97;100.00
7026;BME280;3554;42.132;24.786;2023-05-27T06:16:50;99489.34;;;21.05;100.00
7026;BME280;3554;42.132;24.786;2023-05-27T06:19:17;99479.28;;;20.98;100.00
7026;BME280;3554;42.132;24.786;2023-05-27T06:21:45;99482.28;;;20.93;100.00
7026;BME280;3554;42.132;24.786;2023-05-27T06:24:11;99495.25;;;21.09;100.00
7026;BME280;3554;42.132;24.786;2023-05-27T06:26:39;99505.44;;;20.93;100.00
7026;BME280;3554;42.132;24.786;2023-05-27T06:29:06;99526.84;;;20.91;100.00
7026;BME280;3554;42.132;24.786;2023-05-27T06:31:33;99509.22;;;20.68;100.00
7026;BME280;3554;42.132;24.786;2023-05-27T06:34:00;99530.72;;;20.76;100.00
7026;BME280;3554;42.132;24.786;2023-05-27T06:36:26;99540.88;;;20.71;100.00
7026;BME280;3554;42.132;24.786;2023-05-27T06:38:54;99544.28;;;20.62;100.00
7026;BME280;3554;42.132;24.786;2023-05-27T06:41:20;99562.63;;;20.65;100.00
7026;BME280;3554;42.132;24.786;2023-05-27T06:43:49;99605.81;;;20.58;100.00
7026;BME280;3554;42.132;24.786;2023-05-27T06:46:15;99621.50;;;20.50;100.00
7026;BME280;3554;42.132;24.786;2023-05-27T06:48:42;99629.00;;;20.45;100.00
7026;BME280;3554;42.132;24.786;2023-05-27T06:51:09;99647.81;;;20.31;100.00
7026;BME280;3554;42.132;24.786;2023-05-27T06:53:36;99642.63;;;20.29;100.00
7026;BME280;3554;42.132;24.786;2023-05-27T06:56:03;99658.53;;;20.18;100.00
7026;BME280;3554;42.132;24.786;2023-05-27T06:58:29;99668.06;;;20.20;100.00
7026;BME280;3554;42.132;24.786;2023-05-27T07:00:58;99662.91;;;20.30;100.00
7026;BME280;3554;42.132;24.786;2023-05-27T07:03:24;99677.69;;;20.34;100.00
7026;BME280;3554;42.132;24.786;2023-05-27T07:05:51;99672.38;;;20.34;100.00
7026;BME280;3554;42.132;24.786;2023-05-27T07:08:18;99685.19;;;20.40;100.00
7026;BME280;3554;42.132;24.786;2023-05-27T07:10:45;99680.50;;;20.55;100.00
7026;BME280;3554;42.132;24.786;2023-05-27T07:13:11;99682.09;;;20.57;100.00
7026;BME280;3554;42.132;24.786;2023-05-27T07:15:39;99677.66;;;20.69;100.00
7026;BME280;3554;42.132;24.786;2023-05-27T07:18:07;99670.28;;;20.72;100.00
7026;BME280;3554;42.132;24.786;2023-05-27T07:20:34;99677.66;;;20.58;100.00
7026;BME280;3554;42.132;24.786;2023-05-27T07:23:00;99686.44;;;20.58;100.00
7026;BME280;3554;42.132;24.786;2023-05-27T07:25:27;99714.56;;;20.73;100.00
7026;BME280;3554;42.132;24.786;2023-05-27T07:27:54;99709.13;;;20.75;100.00
7026;BME280;3554;42.132;24.786;2023-05-27T07:30:21;99728.06;;;20.70;100.00
7026;BME280;3554;42.132;24.786;2023-05-27T07:32:47;99756.44;;;20.82;100.00
7026;BME280;3554;42.132;24.786;2023-05-27T07:35:15;99818.78;;;20.67;100.00
7026;BME280;3554;42.132;24.786;2023-05-27T07:37:42;100075.16;;;20.16;100.00
7026;BME280;3554;42.132;24.786;2023-05-27T07:40:10;100294.44;;;19.96;100.00
7026;BME280;3554;42.132;24.786;2023-05-27T07:42:36;100526.69;;;19.80;100.00
7026;BME280;3554;42.132;24.786;2023-05-27T07:45:04;100711.88;;;19.79;100.00
7026;BME280;3554;42.132;24.786;2023-05-27T07:47:30;100905.63;;;19.84;100.00
7026;BME280;3554;42.132;24.786;2023-05-27T07:49:57;101034.50;;;20.09;100.00
7026;BME280;3554;42.132;24.786;2023-05-27T07:52:25;100976.28;;;20.20;100.00
7026;BME280;3554;42.132;24.786;2023-05-27T07:54:52;100894.78;;;20.66;100.00
7026;BME280;3554;42.132;24.786;2023-05-27T07:57:19;100865.19;;;20.86;100.00
7026;BME280;3554;42.132;24.786;2023-05-27T07:59:45;100726.03;;;20.98;100.00
7026;BME280;3554;42.132;24.786;2023-05-27T08:02:12;100660.78;;;20.91;100.00
7026;BME280;3554;42.132;24.786;2023-05-27T08:04:39;100598.22;;;20.98;100.00
7026;BME280;3554;42.132;24.786;2023-05-27T08:07:09;100572.94;;;20.77;100.00
7026;BME280;3554;42.132;24.786;2023-05-27T08:09:37;100561.94;;;20.55;100.00
7026;BME280;3554;42.132;24.786;2023-05-27T08:12:04;100628.72;;;20.51;100.00
7026;BME280;3554;42.132;24.786;2023-05-27T08:14:32;100667.22;;;20.45;100.00
7026;BME280;3554;42.132;24.786;2023-05-27T08:16:58;100591.56;;;20.49;100.00
7026;BME280;3554;42.132;24.786;2023-05-27T08:19:25;100613.81;;;20.48;100.00
7026;BME280;3554;42.132;24.786;2023-05-27T08:21:52;100622.06;;;20.30;100.00
7026;BME280;3554;42.132;24.786;2023-05-27T08:24:21;100659.72;;;20.66;100.00
7026;BME280;3554;42.132;24.786;2023-05-27T08:26:49;100627.88;;;20.64;100.00
7026;BME280;3554;42.132;24.786;2023-05-27T08:29:16;100586.44;;;20.60;100.00
7026;BME280;3554;42.132;24.786;2023-05-27T08:31:43;100581.69;;;20.79;100.00
7026;BME280;3554;42.132;24.786;2023-05-27T08:34:09;100498.94;;;20.96;100.00
7026;BME280;3554;42.132;24.786;2023-05-27T08:36:37;100458.53;;;20.90;100.00
7026;BME280;3554;42.132;24.786;2023-05-27T08:39:03;100447.72;;;20.93;100.00
7026;BME280;3554;42.132;24.786;2023-05-27T08:41:30;100477.91;;;21.06;100.00
7026;BME280;3554;42.132;24.786;2023-05-27T08:43:59;100477.66;;;20.96;100.00
7026;BME280;3554;42.132;24.786;2023-05-27T08:46:26;100507.75;;;20.97;100.00
7026;BME280;3554;42.132;24.786;2023-05-27T08:48:53;100510.50;;;21.09;100.00
7026;BME280;3554;42.132;24.786;2023-05-27T08:51:21;100444.97;;;21.34;100.00
7026;BME280;3554;42.132;24.786;2023-05-27T08:53:48;100423.91;;;21.43;100.00
7026;BME280;3554;42.132;24.786;2023-05-27T08:56:15;100310.78;;;21.60;100.00
7026;BME280;3554;42.132;24.786;2023-05-27T08:58:46;100227.00;;;21.64;100.00
7026;BME280;3554;42.132;24.786;2023-05-27T09:01:16;100197.69;;;21.64;100.00
7026;BME280;3554;42.132;24.786;2023-05-27T09:03:44;100137.47;;;21.61;100.00
7026;BME280;3554;42.132;24.786;2023-05-27T09:06:11;100120.44;;;21.27;100.00
7026;BME280;3554;42.132;24.786;2023-05-27T09:08:37;100122.44;;;21.60;100.00
7026;BME280;3554;42.132;24.786;2023-05-27T09:11:05;100098.28;;;21.74;100.00
7026;BME280;3554;42.132;24.786;2023-05-27T09:13:33;100069.03;;;21.62;100.00
7026;BME280;3554;42.132;24.786;2023-05-27T09:16:01;99976.28;;;21.78;100.00
7026;BME280;3554;42.132;24.786;2023-05-27T09:18:32;99938.91;;;21.90;100.00
7026;BME280;3554;42.132;24.786;2023-05-27T09:20:59;99963.75;;;21.80;100.00
7026;BME280;3554;42.132;24.786;2023-05-27T09:23:26;99951.03;;;21.83;100.00
7026;BME280;3554;42.132;24.786;2023-05-27T09:25:53;99935.25;;;21.91;100.00
7026;BME280;3554;42.132;24.786;2023-05-27T09:28:21;99917.94;;;21.97;100.00
7026;BME280;3554;42.132;24.786;2023-05-27T09:30:51;99888.72;;;21.73;100.00
7026;BME280;3554;42.132;24.786;2023-05-27T09:33:23;99866.97;;;21.56;100.00
7026;BME280;3554;42.132;24.786;2023-05-27T09:35:51;99858.53;;;21.73;100.00
7026;BME280;3554;42.132;24.786;2023-05-27T09:38:18;99841.25;;;21.78;100.00
7026;BME280;3554;42.132;24.786;2023-05-27T09:40:45;99847.50;;;21.77;100.00
7026;BME280;3554;42.132;24.786;2023-05-27T09:43:13;99896.97;;;21.81;100.00
7026;BME280;3554;42.132;24.786;2023-05-27T09:45:41;99941.34;;;21.82;100.00
7026;BME280;3554;42.132;24.786;2023-05-27T09:48:10;99962.59;;;21.71;100.00
7026;BME280;3554;42.132;24.786;2023-05-27T09:50:38;100009.72;;;21.71;100.00
7026;BME280;3554;42.132;24.786;2023-05-27T09:53:06;100061.91;;;21.62;100.00
7026;BME280;3554;42.132;24.786;2023-05-27T09:55:33;99921.00;;;21.58;100.00
7026;BME280;3554;42.132;24.786;2023-05-27T09:58:01;99896.31;;;21.67;100.00
7026;BME280;3554;42.132;24.786;2023-05-27T10:00:28;99837.47;;;21.81;100.00
7026;BME280;3554;42.132;24.786;2023-05-27T10:02:55;99826.34;;;21.87;100.00
7026;BME280;3554;42.132;24.786;2023-05-27T10:05:23;99813.00;;;21.87;100.00
7026;BME280;3554;42.132;24.786;2023-05-27T10:07:50;99788.75;;;22.01;100.00
7026;BME280;3554;42.132;24.786;2023-05-27T10:10:18;99791.66;;;22.09;100.00
7026;BME280;3554;42.132;24.786;2023-05-27T10:12:49;99823.88;;;22.06;100.00
7026;BME280;3554;42.132;24.786;2023-05-27T10:15:23;99795.66;;;22.03;100.00
7026;BME280;3554;42.132;24.786;2023-05-27T10:17:54;99783.38;;;22.23;100.00
7026;BME280;3554;42.132;24.786;2023-05-27T10:20:28;99711.53;;;22.42;100.00
7026;BME280;3554;42.132;24.786;2023-05-27T10:22:57;99698.63;;;22.58;100.00
7026;BME280;3554;42.132;24.786;2023-05-27T10:25:39;99648.28;;;22.74;100.00
7026;BME280;3554;42.132;24.786;2023-05-27T10:28:07;99614.63;;;22.83;100.00
7026;BME280;3554;42.132;24.786;2023-05-27T10:30:43;99563.13;;;23.01;100.00
7026;BME280;3554;42.132;24.786;2023-05-27T10:33:11;99515.28;;;23.38;100.00
7026;BME280;3554;42.132;24.786;2023-05-27T10:35:41;99490.81;;;23.43;100.00
7026;BME280;3554;42.132;24.786;2023-05-27T10:38:15;99477.31;;;23.73;100.00
7026;BME280;3554;42.132;24.786;2023-05-27T10:40:45;99455.03;;;24.10;100.00
7026;BME280;3554;42.132;24.786;2023-05-27T10:43:16;99425.09;;;24.61;100.00
7026;BME280;3554;42.132;24.786;2023-05-27T10:45:43;99375.13;;;24.52;100.00
7026;BME280;3554;42.132;24.786;2023-05-27T10:48:15;99362.78;;;24.14;100.00
7026;BME280;3554;42.132;24.786;2023-05-27T10:50:49;99357.63;;;24.03;100.00
7026;BME280;3554;42.132;24.786;2023-05-27T10:53:18;99348.69;;;24.67;100.00
7026;BME280;3554;42.132;24.786;2023-05-27T10:55:47;99329.28;;;25.17;100.00
7026;BME280;3554;42.132;24.786;2023-05-27T10:58:16;99327.53;;;24.73;100.00
7026;BME280;3554;42.132;24.786;2023-05-27T11:00:44;99299.00;;;24.37;100.00
7026;BME280;3554;42.132;24.786;2023-05-27T11:03:19;99316.66;;;24.30;100.00
7026;BME280;3554;42.132;24.786;2023-05-27T11:05:55;99312.66;;;24.44;100.00
7026;BME280;3554;42.132;24.786;2023-05-27T11:08:23;99311.56;;;24.99;100.00
7026;BME280;3554;42.132;24.786;2023-05-27T11:10:51;99310.75;;;25.24;100.00
7026;BME280;3554;42.132;24.786;2023-05-27T11:13:29;99285.81;;;25.49;100.00
7026;BME280;3554;42.132;24.786;2023-05-27T11:15:56;99273.72;;;26.04;100.00
7026;BME280;3554;42.132;24.786;2023-05-27T11:18:23;99272.81;;;26.37;100.00
7026;BME280;3554;42.132;24.786;2023-05-27T11:20:50;99262.13;;;26.54;100.00
7026;BME280;3554;42.132;24.786;2023-05-27T11:23:16;99264.63;;;26.63;100.00
7026;BME280;3554;42.132;24.786;2023-05-27T11:25:43;99261.53;;;26.26;100.00
7026;BME280;3554;42.132;24.786;2023-05-27T11:28:16;99260.56;;;26.35;100.00
7026;BME280;3554;42.132;24.786;2023-05-27T11:30:43;99263.53;;;25.82;100.00
7026;BME280;3554;42.132;24.786;2023-05-27T11:33:10;99253.88;;;25.97;100.00
7026;BME280;3554;42.132;24.786;2023-05-27T11:35:36;99252.81;;;25.49;100.00
7026;BME280;3554;42.132;24.786;2023-05-27T11:38:03;99260.88;;;25.31;100.00
7026;BME280;3554;42.132;24.786;2023-05-27T11:40:34;99260.09;;;24.60;100.00
7026;BME280;3554;42.132;24.786;2023-05-27T11:43:01;99253.06;;;24.94;100.00
7026;BME280;3554;42.132;24.786;2023-05-27T11:45:29;99258.25;;;25.13;100.00
7026;BME280;3554;42.132;24.786;2023-05-27T11:47:56;99252.97;;;25.29;100.00
7026;BME280;3554;42.132;24.786;2023-05-27T11:50:24;99248.25;;;25.41;100.00
7026;BME280;3554;42.132;24.786;2023-05-27T11:52:53;99239.38;;;25.23;100.00
7026;BME280;3554;42.132;24.786;2023-05-27T11:55:20;99250.53;;;25.62;100.00
7026;BME280;3554;42.132;24.786;2023-05-27T11:57:47;99251.34;;;25.54;100.00
7026;BME280;3554;42.132;24.786;2023-05-27T12:00:14;99244.25;;;25.79;100.00
7026;BME280;3554;42.132;24.786;2023-05-27T12:02:43;99241.91;;;25.76;100.00
7026;BME280;3554;42.132;24.786;2023-05-27T12:05:10;99232.19;;;25.23;100.00
7026;BME280;3554;42.132;24.786;2023-05-27T12:07:37;99233.25;;;25.30;100.00
7026;BME280;3554;42.132;24.786;2023-05-27T12:10:06;99234.16;;;25.13;100.00
7026;BME280;3554;42.132;24.786;2023-05-27T12:12:34;99227.31;;;24.76;100.00
7026;BME280;3554;42.132;24.786;2023-05-27T12:15:00;99226.00;;;24.62;100.00
7026;BME280;3554;42.132;24.786;2023-05-27T12:17:27;99220.50;;;24.81;100.00
7026;BME280;3554;42.132;24.786;2023-05-27T12:19:55;99225.66;;;25.44;100.00
7026;BME280;3554;42.132;24.786;2023-05-27T12:22:22;99216.41;;;25.80;100.00
7026;BME280;3554;42.132;24.786;2023-05-27T12:24:50;99216.53;;;25.36;100.00
7026;BME280;3554;42.132;24.786;2023-05-27T12:27:18;99210.75;;;25.83;100.00
7026;BME280;3554;42.132;24.786;2023-05-27T12:29:45;99209.53;;;26.19;100.00
7026;BME280;3554;42.132;24.786;2023-05-27T12:32:13;99196.13;;;26.35;100.00
7026;BME280;3554;42.132;24.786;2023-05-27T12:34:40;99204.66;;;25.73;100.00
7026;BME280;3554;42.132;24.786;2023-05-27T12:37:08;99200.72;;;26.01;100.00
7026;BME280;3554;42.132;24.786;2023-05-27T12:39:35;99191.44;;;26.29;100.00
7026;BME280;3554;42.132;24.786;2023-05-27T12:42:02;99179.00;;;26.20;100.00
7026;BME280;3554;42.132;24.786;2023-05-27T12:44:29;99177.25;;;26.03;100.00
7026;BME280;3554;42.132;24.786;2023-05-27T12:46:55;99163.56;;;26.14;100.00
7026;BME280;3554;42.132;24.786;2023-05-27T12:49:22;99163.84;;;25.95;100.00
7026;BME280;3554;42.132;24.786;2023-05-27T12:51:49;99164.13;;;25.92;100.00
7026;BME280;3554;42.132;24.786;2023-05-27T12:54:17;99159.78;;;25.91;100.00
7026;BME280;3554;42.132;24.786;2023-05-27T12:56:44;99160.19;;;26.04;100.00
7026;BME280;3554;42.132;24.786;2023-05-27T12:59:10;99157.53;;;26.20;100.00